Time;durP1;ratioP1;P1;durP2;ratioP2;P2;SDS_P1;SDS_P2;PMS_P1;PMS_P2;Temp;Humidity;BMP_temperature;BMP_pressure;BME280_temperature;BME280_humidity;BME280_pressure;Samples;Min_cycle;Max_cycle;Signal;HPM_P1;HPM_P2
2021/01/22 00:00:06;;;;;;;18.47;17.57;;;;;;;;;;5033740;28;20418;-78
2021/01/22 00:02:32;;;;;;;18.50;17.60;;;;;;;;;;5033314;28;20433;-78
2021/01/22 00:04:59;;;;;;;18.60;17.70;;;;;;;;;;5033747;28;20412;-78
2021/01/22 00:07:26;;;;;;;17.83;17.03;;;;;;;;;;5033763;28;20421;-78
2021/01/22 00:09:53;;;;;;;18.85;17.85;;;;;;;;;;5033453;28;20461;-78
2021/01/22 00:12:21;;;;;;;18.97;18.07;;;;;;;;;;5033311;28;20227;-78
2021/01/22 00:14:48;;;;;;;18.50;17.60;;;;;;;;;;5033251;28;20457;-78
2021/01/22 00:17:14;;;;;;;18.90;17.90;;;;;;;;;;5033062;28;20457;-78
2021/01/22 00:19:42;;;;;;;19.30;18.23;;;;;;;;;;5033592;28;20766;-78
2021/01/22 00:22:09;;;;;;;18.60;17.70;;;;;;;;;;5033318;28;20435;-78
2021/01/22 00:24:36;;;;;;;19.73;18.63;;;;;;;;;;5033220;28;20208;-78
2021/01/22 00:27:03;;;;;;;18.80;17.80;;;;;;;;;;5033218;28;20537;-78
2021/01/22 00:29:30;;;;;;;19.20;18.23;;;;;;;;;;5033319;28;20471;-78
2021/01/22 00:31:57;;;;;;;18.77;17.87;;;;;;;;;;5033424;28;20457;-78
2021/01/22 00:34:24;;;;;;;19.57;18.57;;;;;;;;;;5033193;28;20445;-78
2021/01/22 00:36:51;;;;;;;19.00;18.10;;;;;;;;;;5033491;28;20678;-78
2021/01/22 00:39:18;;;;;;;19.47;18.47;;;;;;;;;;5032716;28;20425;-78
2021/01/22 00:41:45;;;;;;;19.23;18.23;;;;;;;;;;5033456;28;20439;-78
2021/01/22 00:44:12;;;;;;;18.70;17.80;;;;;;;;;;5033041;28;20470;-78
2021/01/22 00:46:40;;;;;;;18.73;17.83;;;;;;;;;;5033432;28;20757;-78
2021/01/22 00:49:07;;;;;;;18.60;17.70;;;;;;;;;;5033060;28;20195;-78
2021/01/22 00:51:34;;;;;;;18.80;17.90;;;;;;;;;;5033072;28;20453;-78
2021/01/22 00:54:00;;;;;;;18.30;17.40;;;;;;;;;;5033028;28;20439;-79
2021/01/22 00:56:27;;;;;;;18.67;17.77;;;;;;;;;;5033294;28;20467;-78
2021/01/22 00:58:54;;;;;;;18.20;17.30;;;;;;;;;;5032833;28;20422;-78
2021/01/22 01:01:21;;;;;;;19.10;18.10;;;;;;;;;;5033257;28;20414;-78
2021/01/22 01:03:49;;;;;;;18.92;17.92;;;;;;;;;;5032960;28;20894;-78
2021/01/22 01:06:16;;;;;;;18.53;17.53;;;;;;;;;;5035354;28;20203;-78
2021/01/22 01:08:43;;;;;;;18.60;17.60;;;;;;;;;;5036707;28;20417;-78
2021/01/22 01:11:09;;;;;;;18.57;17.57;;;;;;;;;;5036460;28;20212;-78
2021/01/22 01:13:37;;;;;;;19.17;18.07;;;;;;;;;;5036608;28;20447;-78
2021/01/22 01:16:04;;;;;;;18.93;17.93;;;;;;;;;;5036350;28;20482;-78
2021/01/22 01:18:31;;;;;;;19.00;18.00;;;;;;;;;;5036348;28;20982;-78
2021/01/22 01:20:58;;;;;;;19.17;18.08;;;;;;;;;;5036596;28;20421;-78
2021/01/22 01:23:25;;;;;;;20.00;18.80;;;;;;;;;;5036527;28;20565;-78
2021/01/22 01:25:52;;;;;;;19.60;18.50;;;;;;;;;;5018657;28;20805;-78
2021/01/22 01:28:19;;;;;;;19.33;18.23;;;;;;;;;;5036367;28;20459;-78
2021/01/22 01:30:46;;;;;;;19.67;18.57;;;;;;;;;;5036030;28;20453;-78
2021/01/22 01:33:13;;;;;;;18.90;17.70;;;;;;;;;;5036807;28;20430;-78
2021/01/22 01:35:40;;;;;;;18.83;17.83;;;;;;;;;;5037078;28;20421;-78
2021/01/22 01:38:08;;;;;;;19.70;18.50;;;;;;;;;;5035952;28;21031;-78
2021/01/22 01:40:34;;;;;;;18.60;17.60;;;;;;;;;;5035834;28;20420;-78
2021/01/22 01:43:01;;;;;;;18.67;17.70;;;;;;;;;;5036421;28;20453;-78
2021/01/22 01:45:29;;;;;;;18.50;17.50;;;;;;;;;;5036124;28;20200;-78
2021/01/22 01:47:56;;;;;;;19.47;18.37;;;;;;;;;;5035853;28;20427;-78
2021/01/22 01:50:23;;;;;;;19.17;18.08;;;;;;;;;;5036475;28;20414;-78
2021/01/22 01:52:50;;;;;;;19.47;18.47;;;;;;;;;;5035714;28;20195;-78
2021/01/22 01:55:18;;;;;;;19.27;18.00;;;;;;;;;;5035931;28;20417;-78
2021/01/22 01:57:45;;;;;;;19.43;18.33;;;;;;;;;;5035950;28;20454;-78
2021/01/22 02:00:12;;;;;;;20.20;19.00;;;;;;;;;;5035586;28;20418;-79
2021/01/22 02:02:39;;;;;;;19.50;18.30;;;;;;;;;;5035687;28;20426;-78
2021/01/22 02:05:06;;;;;;;19.23;18.00;;;;;;;;;;5035439;28;20422;-78
2021/01/22 02:07:33;;;;;;;19.30;18.20;;;;;;;;;;5035772;28;20524;-78
2021/01/22 02:10:00;;;;;;;19.60;18.40;;;;;;;;;;5035424;28;21014;-78
2021/01/22 02:12:28;;;;;;;19.48;18.30;;;;;;;;;;5035662;28;20560;-78
2021/01/22 02:14:55;;;;;;;20.53;18.97;;;;;;;;;;5034923;28;20199;-78
2021/01/22 02:17:22;;;;;;;19.43;18.33;;;;;;;;;;5034415;28;20493;-78
2021/01/22 02:19:59;;;;;;;19.90;18.63;;;;;;;;;;5035137;28;20428;-78
2021/01/22 02:22:26;;;;;;;20.15;19.02;;;;;;;;;;5035137;28;20467;-78
2021/01/22 02:24:54;;;;;;;20.23;18.90;;;;;;;;;;5035086;28;20192;-78
2021/01/22 02:27:22;;;;;;;19.70;18.45;;;;;;;;;;5035357;28;20801;-78
2021/01/22 02:29:49;;;;;;;19.70;18.60;;;;;;;;;;5035056;28;20215;-78
2021/01/22 02:32:18;;;;;;;20.10;18.80;;;;;;;;;;5017216;28;20478;-78
2021/01/22 02:34:46;;;;;;;19.23;18.17;;;;;;;;;;5036025;28;20486;-78
2021/01/22 02:37:13;;;;;;;19.00;17.90;;;;;;;;;;5034853;28;20439;-78
2021/01/22 02:39:42;;;;;;;19.33;18.33;;;;;;;;;;5034765;28;20909;-78
2021/01/22 02:42:09;;;;;;;19.50;18.23;;;;;;;;;;5035045;28;20239;-78
2021/01/22 02:44:37;;;;;;;19.93;18.87;;;;;;;;;;5034637;28;20231;-78
2021/01/22 02:47:08;;;;;;;19.87;18.70;;;;;;;;;;5034739;28;20887;-78
2021/01/22 02:49:35;;;;;;;19.40;18.40;;;;;;;;;;5034831;28;20453;-78
2021/01/22 02:52:01;;;;;;;18.97;17.97;;;;;;;;;;5034791;28;20465;-78
2021/01/22 02:54:28;;;;;;;19.00;18.00;;;;;;;;;;5034852;28;20410;-78
2021/01/22 02:57:01;;;;;;;18.30;17.30;;;;;;;;;;5034420;28;20921;-78
2021/01/22 02:59:34;;;;;;;18.95;17.95;;;;;;;;;;5034367;28;20447;-78
2021/01/22 03:02:07;;;;;;;20.10;18.90;;;;;;;;;;5034650;28;20208;-78
2021/01/22 03:04:35;;;;;;;19.40;18.40;;;;;;;;;;5034308;28;20196;-78
2021/01/22 03:07:02;;;;;;;19.47;18.30;;;;;;;;;;5034269;28;20421;-78
2021/01/22 03:09:29;;;;;;;19.47;18.10;;;;;;;;;;5034173;28;20413;-78
2021/01/22 03:11:58;;;;;;;19.10;18.00;;;;;;;;;;5034145;28;20461;-78
2021/01/22 03:14:26;;;;;;;19.27;18.10;;;;;;;;;;5033967;28;20822;-78
2021/01/22 03:16:53;;;;;;;19.40;18.30;;;;;;;;;;5013095;28;20833;-78
2021/01/22 03:19:21;;;;;;;19.00;18.00;;;;;;;;;;5014310;28;20197;-78
2021/01/22 03:21:48;;;;;;;18.80;17.87;;;;;;;;;;5013362;28;20422;-78
2021/01/22 03:24:15;;;;;;;19.47;18.37;;;;;;;;;;5014581;28;20436;-78
2021/01/22 03:26:42;;;;;;;19.47;18.47;;;;;;;;;;5015473;28;20440;-78
2021/01/22 03:29:09;;;;;;;29.23;27.43;;;;;;;;;;5014254;28;20422;-78
2021/01/22 03:31:36;;;;;;;33.50;31.40;;;;;;;;;;5014468;28;20487;-78
2021/01/22 03:34:03;;;;;;;30.70;28.60;;;;;;;;;;5014074;28;20415;-78
2021/01/22 03:36:31;;;;;;;30.37;28.47;;;;;;;;;;5014377;28;20426;-78
2021/01/22 03:38:57;;;;;;;31.45;29.45;;;;;;;;;;5014326;28;20439;-78
2021/01/22 03:41:24;;;;;;;32.10;30.10;;;;;;;;;;5014012;28;20196;-78
2021/01/22 03:43:51;;;;;;;32.60;30.70;;;;;;;;;;5014081;28;20828;-78
2021/01/22 03:46:18;;;;;;;32.30;30.30;;;;;;;;;;5013944;28;20197;-78
2021/01/22 03:48:47;;;;;;;32.60;30.50;;;;;;;;;;5014229;28;20607;-78
2021/01/22 03:51:14;;;;;;;31.50;29.65;;;;;;;;;;5012573;28;20490;-78
2021/01/22 03:53:41;;;;;;;31.75;29.67;;;;;;;;;;5014181;28;20196;-79
2021/01/22 03:56:08;;;;;;;29.15;27.45;;;;;;;;;;5013771;28;20211;-78
2021/01/22 03:58:35;;;;;;;31.55;29.65;;;;;;;;;;5013856;28;20583;-78
2021/01/22 04:01:02;;;;;;;28.70;27.00;;;;;;;;;;5014193;28;20210;-78
2021/01/22 04:03:29;;;;;;;29.85;28.05;;;;;;;;;;5013977;28;20585;-78
2021/01/22 04:05:56;;;;;;;28.25;26.50;;;;;;;;;;5013927;28;20220;-78
2021/01/22 04:08:23;;;;;;;28.17;26.38;;;;;;;;;;5014426;28;20191;-78
2021/01/22 04:10:51;;;;;;;28.73;26.92;;;;;;;;;;5013811;28;20223;-78
2021/01/22 04:13:18;;;;;;;30.92;29.02;;;;;;;;;;5013780;28;20557;-78
2021/01/22 04:15:45;;;;;;;28.15;26.35;;;;;;;;;;5021113;28;20231;-78
2021/01/22 04:18:11;;;;;;;29.85;28.05;;;;;;;;;;5033953;28;20560;-77
2021/01/22 04:20:38;;;;;;;28.90;27.10;;;;;;;;;;5033595;28;20633;-78
2021/01/22 04:23:05;;;;;;;29.08;27.13;;;;;;;;;;5033364;28;20600;-78
2021/01/22 04:25:32;;;;;;;29.95;28.15;;;;;;;;;;5033633;28;20202;-78
2021/01/22 04:28:00;;;;;;;29.65;27.85;;;;;;;;;;5033457;28;20234;-78
2021/01/22 04:30:26;;;;;;;30.48;28.58;;;;;;;;;;5033216;28;20225;-78
2021/01/22 04:32:53;;;;;;;28.90;27.10;;;;;;;;;;5033413;28;20225;-78
2021/01/22 04:35:20;;;;;;;28.63;26.83;;;;;;;;;;5033246;28;20190;-78
2021/01/22 04:37:47;;;;;;;29.15;27.35;;;;;;;;;;5033161;28;20190;-78
2021/01/22 04:40:14;;;;;;;30.40;28.50;;;;;;;;;;5034080;28;20196;-78
2021/01/22 04:42:42;;;;;;;30.90;29.00;;;;;;;;;;5036906;28;20194;-78
2021/01/22 04:45:11;;;;;;;31.88;29.98;;;;;;;;;;5036988;28;20210;-78
2021/01/22 04:47:39;;;;;;;32.95;30.95;;;;;;;;;;5037881;28;20202;-78
2021/01/22 04:50:06;;;;;;;36.28;34.08;;;;;;;;;;5036806;28;20529;-78
2021/01/22 04:52:33;;;;;;;33.38;31.40;;;;;;;;;;5036720;28;20292;-78
2021/01/22 04:55:02;;;;;;;34.85;32.85;;;;;;;;;;5036833;28;20241;-78
2021/01/22 04:57:31;;;;;;;35.28;33.17;;;;;;;;;;5036663;28;20208;-78
2021/01/22 04:59:58;;;;;;;34.90;32.90;;;;;;;;;;5036630;28;20189;-78
2021/01/22 05:02:26;;;;;;;35.85;33.75;;;;;;;;;;5036686;28;20195;-78
2021/01/22 05:04:52;;;;;;;37.10;34.90;;;;;;;;;;5036953;28;20191;-78
2021/01/22 05:07:22;;;;;;;37.33;35.13;;;;;;;;;;5036570;28;20187;-78
2021/01/22 05:09:49;;;;;;;36.00;33.90;;;;;;;;;;5036823;28;20190;-78
2021/01/22 05:12:15;;;;;;;39.33;37.03;;;;;;;;;;5036635;28;20219;-78
2021/01/22 05:14:42;;;;;;;38.97;36.58;;;;;;;;;;5036321;28;20555;-78
2021/01/22 05:17:10;;;;;;;37.92;35.72;;;;;;;;;;5036211;28;20244;-79
2021/01/22 05:19:38;;;;;;;38.88;36.25;;;;;;;;;;5036617;28;20193;-79
2021/01/22 05:22:05;;;;;;;35.45;33.35;;;;;;;;;;5036587;28;20190;-80
2021/01/22 05:24:34;;;;;;;35.50;33.15;;;;;;;;;;5036242;28;20201;-78
2021/01/22 05:27:05;;;;;;;34.85;32.65;;;;;;;;;;5036470;28;20190;-79
2021/01/22 05:29:33;;;;;;;35.55;33.45;;;;;;;;;;5036060;28;20280;-78
2021/01/22 05:31:59;;;;;;;35.03;32.92;;;;;;;;;;5036284;28;20221;-78
2021/01/22 05:34:44;;;;;;;37.35;35.15;;;;;;;;;;5036000;28;20193;-78
2021/01/22 05:37:11;;;;;;;36.65;34.45;;;;;;;;;;5036268;28;20193;-78
2021/01/22 05:39:38;;;;;;;37.83;35.40;;;;;;;;;;5035849;28;20194;-78
2021/01/22 05:42:07;;;;;;;38.78;36.50;;;;;;;;;;5036263;28;20249;-78
2021/01/22 05:44:34;;;;;;;38.80;36.60;;;;;;;;;;5035559;28;20225;-78
2021/01/22 05:47:02;;;;;;;39.92;37.33;;;;;;;;;;5035779;28;20197;-78
2021/01/22 05:49:29;;;;;;;41.60;38.97;;;;;;;;;;5035991;28;20190;-78
2021/01/22 05:51:57;;;;;;;41.20;38.78;;;;;;;;;;5034630;28;20223;-78
2021/01/22 05:54:37;;;;;;;44.63;41.83;;;;;;;;;;5035678;28;20195;-78
2021/01/22 05:57:04;;;;;;;43.63;40.70;;;;;;;;;;5035848;28;20206;-78
2021/01/22 05:59:31;;;;;;;43.17;40.38;;;;;;;;;;5035480;28;20190;-78
2021/01/22 06:01:58;;;;;;;40.60;38.03;;;;;;;;;;5035382;28;20199;-78
2021/01/22 06:04:25;;;;;;;41.40;38.70;;;;;;;;;;5035414;28;20241;-78
2021/01/22 06:06:53;;;;;;;39.65;37.17;;;;;;;;;;5035607;28;20196;-78
2021/01/22 06:09:34;;;;;;;39.60;37.10;;;;;;;;;;5035602;28;20248;-78
2021/01/22 06:12:03;;;;;;;37.95;35.65;;;;;;;;;;5035308;28;20220;-79
2021/01/22 06:14:38;;;;;;;37.80;35.53;;;;;;;;;;5035451;28;20200;-78
2021/01/22 06:17:07;;;;;;;35.15;33.05;;;;;;;;;;5034772;28;20236;-78
2021/01/22 06:19:40;;;;;;;36.45;34.25;;;;;;;;;;5035694;28;20573;-78
2021/01/22 06:22:12;;;;;;;37.30;35.13;;;;;;;;;;5035419;28;20192;-78
2021/01/22 06:24:40;;;;;;;36.50;34.20;;;;;;;;;;5035161;28;20644;-78
2021/01/22 06:27:08;;;;;;;36.40;34.20;;;;;;;;;;5035086;28;20190;-78
2021/01/22 06:29:37;;;;;;;39.22;36.92;;;;;;;;;;5034933;28;20645;-78
2021/01/22 06:32:05;;;;;;;38.05;35.70;;;;;;;;;;5035665;28;20213;-78
2021/01/22 06:34:32;;;;;;;39.90;37.60;;;;;;;;;;5034854;28;20198;-78
2021/01/22 06:36:59;;;;;;;40.22;37.72;;;;;;;;;;5035479;28;20194;-78
2021/01/22 06:39:27;;;;;;;41.55;39.00;;;;;;;;;;5034994;28;20195;-78
2021/01/22 06:41:55;;;;;;;40.20;37.63;;;;;;;;;;5035119;28;20193;-78
2021/01/22 06:44:21;;;;;;;40.63;38.17;;;;;;;;;;5034529;28;20222;-78
2021/01/22 06:46:48;;;;;;;43.30;40.47;;;;;;;;;;5035047;28;20191;-78
2021/01/22 06:49:15;;;;;;;42.35;39.75;;;;;;;;;;5035113;28;20244;-82
2021/01/22 06:51:42;;;;;;;42.75;40.00;;;;;;;;;;5034698;28;20235;-78
2021/01/22 06:54:10;;;;;;;41.63;39.03;;;;;;;;;;5034942;28;20186;-82
2021/01/22 06:56:38;;;;;;;42.85;39.85;;;;;;;;;;5034919;28;20187;-82
2021/01/22 06:59:25;;;;;;;43.05;40.25;;;;;;;;;;5034833;28;20567;-79
2021/01/22 07:01:53;;;;;;;44.42;41.65;;;;;;;;;;5034569;28;20232;-78
2021/01/22 07:04:35;;;;;;;45.30;42.30;;;;;;;;;;5033808;28;20197;-79
2021/01/22 07:07:03;;;;;;;42.85;39.95;;;;;;;;;;5034720;28;20202;-78
2021/01/22 07:09:46;;;;;;;49.58;46.47;;;;;;;;;;5034057;28;20244;-79
2021/01/22 07:12:14;;;;;;;49.67;46.55;;;;;;;;;;5033895;28;20230;-79
2021/01/22 07:14:42;;;;;;;50.63;47.22;;;;;;;;;;5034230;28;20194;-80
2021/01/22 07:17:18;;;;;;;48.53;45.28;;;;;;;;;;5016263;28;20734;-80
2021/01/22 07:19:55;;;;;;;49.22;45.72;;;;;;;;;;5033941;28;20197;-79
2021/01/22 07:22:22;;;;;;;48.92;45.45;;;;;;;;;;5034030;28;20189;-80
2021/01/22 07:24:51;;;;;;;48.80;45.28;;;;;;;;;;5016224;28;20205;-80
2021/01/22 07:27:18;;;;;;;49.08;45.72;;;;;;;;;;5033906;28;20552;-80
2021/01/22 07:30:07;;;;;;;52.30;48.55;;;;;;;;;;5034171;28;20198;-80
2021/01/22 07:32:35;;;;;;;46.75;43.55;;;;;;;;;;5033751;28;20277;-80
2021/01/22 07:35:02;;;;;;;52.65;48.70;;;;;;;;;;5034143;28;20640;-80
2021/01/22 07:37:35;;;;;;;49.78;46.28;;;;;;;;;;5016574;28;20211;-79
2021/01/22 07:40:06;;;;;;;50.70;46.60;;;;;;;;;;5033503;28;20652;-79
2021/01/22 07:42:33;;;;;;;49.65;45.85;;;;;;;;;;5033598;28;20202;-80
2021/01/22 07:45:05;;;;;;;52.38;48.67;;;;;;;;;;5033759;28;20214;-80
2021/01/22 07:47:33;;;;;;;49.40;45.80;;;;;;;;;;5033975;28;20205;-79
2021/01/22 07:50:01;;;;;;;49.13;45.40;;;;;;;;;;5033920;28;20192;-79
2021/01/22 07:52:28;;;;;;;47.95;44.53;;;;;;;;;;5033634;28;20222;-78
2021/01/22 07:54:55;;;;;;;48.15;44.65;;;;;;;;;;5033567;28;20191;-80
2021/01/22 07:57:23;;;;;;;48.95;45.30;;;;;;;;;;5033597;28;20671;-81
2021/01/22 07:59:50;;;;;;;53.75;49.63;;;;;;;;;;5033806;28;20198;-78
2021/01/22 08:02:18;;;;;;;50.67;46.97;;;;;;;;;;5033722;28;20202;-77
2021/01/22 08:04:45;;;;;;;50.10;46.28;;;;;;;;;;5033686;28;20195;-77
2021/01/22 08:07:13;;;;;;;45.55;42.33;;;;;;;;;;5016110;28;20202;-78
2021/01/22 08:09:58;;;;;;;50.00;46.40;;;;;;;;;;5033501;28;20226;-76
2021/01/22 08:12:25;;;;;;;48.45;44.90;;;;;;;;;;5033337;28;20248;-75
2021/01/22 08:14:52;;;;;;;49.13;45.42;;;;;;;;;;5034052;28;20554;-81
2021/01/22 08:17:19;;;;;;;50.05;46.33;;;;;;;;;;5037161;28;20629;-87
2021/01/22 08:19:46;;;;;;;46.63;43.03;;;;;;;;;;5038442;28;20573;-84
2021/01/22 08:22:17;;;;;;;47.30;43.83;;;;;;;;;;5038445;28;20193;-83
2021/01/22 08:24:48;;;;;;;46.58;42.88;;;;;;;;;;5038219;28;20269;-85
2021/01/22 08:27:15;;;;;;;43.45;40.33;;;;;;;;;;5038422;28;20197;-83
2021/01/22 08:29:43;;;;;;;42.67;39.60;;;;;;;;;;5037753;28;20198;-84
2021/01/22 08:32:11;;;;;;;44.08;40.78;;;;;;;;;;5037738;28;20230;-84
2021/01/22 08:34:39;;;;;;;43.17;39.75;;;;;;;;;;5037671;28;20200;-85
2021/01/22 08:37:08;;;;;;;40.95;37.70;;;;;;;;;;5038090;28;20637;-84
2021/01/22 08:39:48;;;;;;;38.85;35.63;;;;;;;;;;5037430;28;20285;-84
2021/01/22 08:42:15;;;;;;;35.33;32.38;;;;;;;;;;5037449;28;20654;-84
2021/01/22 08:44:52;;;;;;;38.45;35.50;;;;;;;;;;5037581;28;20392;-85
2021/01/22 08:47:19;;;;;;;36.22;33.42;;;;;;;;;;5037915;28;20247;-84
2021/01/22 08:49:56;;;;;;;37.15;34.10;;;;;;;;;;5037329;28;20216;-83
2021/01/22 08:52:23;;;;;;;32.55;30.02;;;;;;;;;;5037386;28;20225;-84
2021/01/22 08:54:52;;;;;;;33.38;30.70;;;;;;;;;;5037040;28;20199;-84
2021/01/22 08:57:19;;;;;;;35.28;32.55;;;;;;;;;;5036829;28;20191;-85
2021/01/22 08:59:47;;;;;;;32.78;29.88;;;;;;;;;;5036213;28;20850;-89
2021/01/22 09:02:14;;;;;;;33.22;30.63;;;;;;;;;;5036062;28;20654;-83
2021/01/22 09:04:42;;;;;;;32.58;30.08;;;;;;;;;;5046244;28;20205;-82
2021/01/22 09:07:16;;;;;;;34.63;31.75;;;;;;;;;;5056745;28;20189;-83
2021/01/22 09:09:47;;;;;;;32.58;29.77;;;;;;;;;;5056615;28;20215;-83
2021/01/22 09:12:16;;;;;;;32.38;29.58;;;;;;;;;;5056366;28;20269;-83
2021/01/22 09:14:50;;;;;;;33.13;30.25;;;;;;;;;;5056637;28;20647;-82
2021/01/22 09:17:35;;;;;;;34.97;32.30;;;;;;;;;;5056248;28;20230;-82
2021/01/22 09:20:03;;;;;;;31.35;28.95;;;;;;;;;;5056611;28;20205;-82
2021/01/22 09:22:33;;;;;;;34.85;31.85;;;;;;;;;;5037327;28;20654;-82
2021/01/22 09:25:01;;;;;;;33.00;30.20;;;;;;;;;;5056253;28;20239;-82
2021/01/22 09:27:29;;;;;;;32.38;29.70;;;;;;;;;;5056071;28;20189;-83
2021/01/22 09:29:56;;;;;;;34.15;31.67;;;;;;;;;;5056504;28;20186;-81
2021/01/22 09:32:23;;;;;;;34.47;31.65;;;;;;;;;;5056217;28;20724;-87
2021/01/22 09:34:50;;;;;;;30.13;27.75;;;;;;;;;;5056528;28;20201;-85
2021/01/22 09:37:17;;;;;;;32.33;29.70;;;;;;;;;;5056605;28;20259;-85
2021/01/22 09:39:44;;;;;;;32.28;29.70;;;;;;;;;;5056944;28;20191;-86
2021/01/22 09:42:11;;;;;;;33.30;30.42;;;;;;;;;;5057095;28;20239;-85
2021/01/22 09:44:39;;;;;;;33.45;30.65;;;;;;;;;;5056142;28;20194;-84
2021/01/22 09:47:07;;;;;;;33.55;30.75;;;;;;;;;;5057885;28;20185;-85
2021/01/22 09:49:34;;;;;;;32.30;29.65;;;;;;;;;;5040445;28;20302;-83
2021/01/22 09:52:01;;;;;;;31.52;29.00;;;;;;;;;;5038568;28;20229;-91
2021/01/22 09:54:27;;;;;;;31.98;29.38;;;;;;;;;;5056304;28;20219;-86
2021/01/22 09:56:54;;;;;;;31.80;29.30;;;;;;;;;;5058072;28;20221;-84
2021/01/22 09:59:21;;;;;;;32.20;29.63;;;;;;;;;;5057539;28;20220;-84
2021/01/22 10:01:49;;;;;;;32.13;29.33;;;;;;;;;;5056988;28;20514;-83
2021/01/22 10:04:16;;;;;;;31.25;28.63;;;;;;;;;;5055561;28;20205;-82
2021/01/22 10:06:43;;;;;;;34.25;31.15;;;;;;;;;;5055599;28;20201;-83
2021/01/22 10:09:10;;;;;;;32.88;30.17;;;;;;;;;;5055483;28;20197;-83
2021/01/22 10:11:38;;;;;;;30.40;27.83;;;;;;;;;;5055948;28;20209;-83
2021/01/22 10:14:05;;;;;;;33.15;30.45;;;;;;;;;;5055795;28;20198;-83
2021/01/22 10:16:32;;;;;;;36.22;33.22;;;;;;;;;;5055289;28;20764;-83
2021/01/22 10:19:00;;;;;;;33.25;30.55;;;;;;;;;;5056597;28;20213;-84
2021/01/22 10:21:26;;;;;;;29.27;26.98;;;;;;;;;;5055944;28;20198;-82
2021/01/22 10:23:54;;;;;;;29.70;27.30;;;;;;;;;;5055784;28;20659;-85
2021/01/22 10:26:21;;;;;;;35.33;32.03;;;;;;;;;;5055828;28;20554;-86
2021/01/22 10:28:49;;;;;;;33.63;30.83;;;;;;;;;;5056038;28;20202;-85
2021/01/22 10:31:16;;;;;;;34.08;30.88;;;;;;;;;;5055702;28;20384;-84
2021/01/22 10:33:42;;;;;;;29.80;27.00;;;;;;;;;;5056382;28;20194;-85
2021/01/22 10:36:11;;;;;;;31.83;29.13;;;;;;;;;;5056749;28;20195;-85
2021/01/22 10:38:37;;;;;;;32.78;29.98;;;;;;;;;;5054658;28;20195;-85
2021/01/22 10:41:05;;;;;;;33.85;30.77;;;;;;;;;;5055469;28;20215;-89
2021/01/22 10:43:32;;;;;;;34.88;31.73;;;;;;;;;;5056208;28;20633;-85
2021/01/22 10:45:59;;;;;;;32.83;30.08;;;;;;;;;;5055342;28;20186;-88
2021/01/22 10:48:26;;;;;;;33.40;30.80;;;;;;;;;;5055319;28;20189;-87
2021/01/22 10:50:54;;;;;;;34.63;31.38;;;;;;;;;;5055745;28;20217;-83
2021/01/22 10:53:23;;;;;;;33.17;30.38;;;;;;;;;;5054772;28;20264;-83
2021/01/22 10:55:50;;;;;;;35.30;32.15;;;;;;;;;;5054852;28;20190;-82
2021/01/22 10:58:17;;;;;;;34.38;31.17;;;;;;;;;;5054788;28;20218;-81
2021/01/22 11:00:44;;;;;;;34.58;31.50;;;;;;;;;;5054528;28;20209;-82
2021/01/22 11:03:11;;;;;;;30.23;27.33;;;;;;;;;;5054438;28;20210;-82
2021/01/22 11:05:38;;;;;;;34.90;31.80;;;;;;;;;;5054434;28;20190;-83
2021/01/22 11:08:05;;;;;;;32.17;29.67;;;;;;;;;;5054248;28;20191;-83
2021/01/22 11:10:33;;;;;;;32.58;30.08;;;;;;;;;;5054029;28;20191;-82
2021/01/22 11:13:00;;;;;;;31.92;29.42;;;;;;;;;;5054297;28;20222;-83
2021/01/22 11:15:27;;;;;;;28.20;26.00;;;;;;;;;;5053529;28;20204;-82
2021/01/22 11:17:54;;;;;;;32.55;29.83;;;;;;;;;;5036665;28;20629;-83
2021/01/22 11:20:21;;;;;;;31.33;28.77;;;;;;;;;;5054215;28;20640;-84
2021/01/22 11:22:48;;;;;;;29.42;27.23;;;;;;;;;;5054418;28;20197;-83
2021/01/22 11:25:15;;;;;;;31.73;29.25;;;;;;;;;;5054083;28;20552;-88
2021/01/22 11:27:43;;;;;;;30.30;27.92;;;;;;;;;;5054874;28;20215;-87
2021/01/22 11:30:11;;;;;;;28.00;25.27;;;;;;;;;;5054736;28;20654;-84
2021/01/22 11:32:38;;;;;;;30.55;27.95;;;;;;;;;;5055260;28;20244;-85
2021/01/22 11:35:08;;;;;;;29.88;27.30;;;;;;;;;;5053896;28;20210;-80
2021/01/22 11:37:35;;;;;;;28.90;26.70;;;;;;;;;;5054007;28;20236;-81
2021/01/22 11:40:02;;;;;;;32.13;29.40;;;;;;;;;;5036422;28;20191;-76
2021/01/22 11:42:29;;;;;;;31.65;28.67;;;;;;;;;;5053588;28;20580;-77
2021/01/22 11:44:57;;;;;;;27.58;25.42;;;;;;;;;;5035710;28;20207;-78
2021/01/22 11:47:24;;;;;;;30.33;27.95;;;;;;;;;;5053533;28;20199;-78
2021/01/22 11:49:51;;;;;;;28.80;26.60;;;;;;;;;;5053778;28;20202;-78
2021/01/22 11:52:18;;;;;;;30.42;27.88;;;;;;;;;;5053460;28;20213;-78
2021/01/22 11:54:45;;;;;;;28.50;26.10;;;;;;;;;;5053612;28;20192;-77
2021/01/22 11:57:12;;;;;;;27.63;25.33;;;;;;;;;;5053800;28;20190;-77
2021/01/22 11:59:38;;;;;;;30.05;27.85;;;;;;;;;;5053385;28;20198;-77
2021/01/22 12:02:06;;;;;;;30.70;28.10;;;;;;;;;;5053404;28;20191;-77
2021/01/22 12:04:33;;;;;;;33.47;28.63;;;;;;;;;;5053304;28;20195;-77
2021/01/22 12:07:00;;;;;;;30.70;28.27;;;;;;;;;;5053467;28;20203;-77
2021/01/22 12:09:27;;;;;;;33.05;29.88;;;;;;;;;;5053353;28;20234;-80
2021/01/22 12:11:53;;;;;;;30.80;27.85;;;;;;;;;;5053125;28;20222;-77
2021/01/22 12:14:20;;;;;;;29.17;26.60;;;;;;;;;;5053469;28;20189;-80
2021/01/22 12:16:47;;;;;;;34.50;31.50;;;;;;;;;;5053013;28;20282;-77
2021/01/22 12:19:16;;;;;;;31.30;28.73;;;;;;;;;;5053509;28;20197;-77
2021/01/22 12:21:43;;;;;;;32.17;29.48;;;;;;;;;;5053346;28;20265;-76
2021/01/22 12:24:10;;;;;;;29.90;27.40;;;;;;;;;;5053906;28;20255;-76
2021/01/22 12:26:38;;;;;;;28.77;26.58;;;;;;;;;;5053226;28;20226;-76
2021/01/22 12:29:05;;;;;;;32.05;29.30;;;;;;;;;;5053373;28;20190;-76
2021/01/22 12:31:32;;;;;;;30.92;28.40;;;;;;;;;;5053017;28;20190;-76
2021/01/22 12:33:58;;;;;;;31.20;28.63;;;;;;;;;;5053078;28;20659;-76
2021/01/22 12:36:26;;;;;;;30.98;28.58;;;;;;;;;;5053377;28;20197;-76
2021/01/22 12:38:53;;;;;;;29.80;27.35;;;;;;;;;;5053231;28;20633;-77
2021/01/22 12:41:20;;;;;;;28.35;26.15;;;;;;;;;;5053367;28;20191;-77
2021/01/22 12:43:46;;;;;;;32.95;30.05;;;;;;;;;;5052751;28;20225;-76
2021/01/22 12:46:13;;;;;;;31.30;28.90;;;;;;;;;;5053785;28;20207;-76
2021/01/22 12:48:40;;;;;;;29.92;27.63;;;;;;;;;;5053208;28;20560;-76
2021/01/22 12:51:07;;;;;;;30.58;28.17;;;;;;;;;;5052988;28;20190;-76
2021/01/22 12:53:35;;;;;;;30.13;27.85;;;;;;;;;;5052992;28;20231;-76
2021/01/22 12:56:02;;;;;;;33.45;30.35;;;;;;;;;;5053165;28;20202;-77
2021/01/22 12:58:29;;;;;;;31.75;29.25;;;;;;;;;;5052757;28;20199;-76
2021/01/22 13:00:55;;;;;;;30.70;28.27;;;;;;;;;;5053572;28;20191;-76
2021/01/22 13:03:22;;;;;;;31.20;28.77;;;;;;;;;;5056685;28;20602;-77
2021/01/22 13:05:49;;;;;;;29.23;26.70;;;;;;;;;;5056490;28;20197;-76
2021/01/22 13:08:16;;;;;;;29.42;27.27;;;;;;;;;;5056519;28;20210;-76
2021/01/22 13:10:44;;;;;;;30.48;28.13;;;;;;;;;;5056742;28;20213;-75
2021/01/22 13:13:10;;;;;;;30.05;27.75;;;;;;;;;;5056175;28;20225;-75
2021/01/22 13:15:37;;;;;;;28.48;26.38;;;;;;;;;;5056186;28;20690;-76
2021/01/22 13:18:04;;;;;;;30.17;27.73;;;;;;;;;;5056551;28;20195;-76
2021/01/22 13:20:31;;;;;;;30.45;28.05;;;;;;;;;;5056545;28;20186;-77
2021/01/22 13:22:58;;;;;;;27.98;25.83;;;;;;;;;;5056567;28;20190;-82
2021/01/22 13:25:25;;;;;;;30.17;27.88;;;;;;;;;;5056446;28;20188;-76
2021/01/22 13:27:53;;;;;;;31.17;28.70;;;;;;;;;;5055990;28;20556;-76
2021/01/22 13:30:20;;;;;;;28.92;26.05;;;;;;;;;;5056035;28;20191;-76
2021/01/22 13:32:47;;;;;;;30.17;27.88;;;;;;;;;;5056247;28;20675;-78
2021/01/22 13:35:14;;;;;;;29.20;26.65;;;;;;;;;;5056135;28;20190;-78
2021/01/22 13:37:41;;;;;;;30.40;27.85;;;;;;;;;;5056300;28;20221;-77
2021/01/22 13:40:15;;;;;;;29.33;27.13;;;;;;;;;;5056328;28;20193;-77
2021/01/22 13:42:42;;;;;;;27.95;25.95;;;;;;;;;;5055814;28;20214;-78
2021/01/22 13:45:11;;;;;;;28.48;26.30;;;;;;;;;;5055731;28;20632;-77
2021/01/22 13:47:38;;;;;;;29.65;27.20;;;;;;;;;;5037932;28;20201;-78
2021/01/22 13:50:05;;;;;;;29.35;27.00;;;;;;;;;;5056003;28;20241;-77
2021/01/22 13:52:32;;;;;;;26.60;24.85;;;;;;;;;;5055661;28;20224;-78
2021/01/22 13:54:59;;;;;;;26.20;24.10;;;;;;;;;;5055717;28;20644;-78
2021/01/22 13:57:26;;;;;;;27.17;24.95;;;;;;;;;;5055917;28;20248;-78
2021/01/22 13:59:53;;;;;;;29.30;26.73;;;;;;;;;;5055976;28;20645;-77
2021/01/22 14:02:21;;;;;;;27.85;25.80;;;;;;;;;;5055899;28;20197;-77
2021/01/22 14:04:48;;;;;;;30.02;27.92;;;;;;;;;;5055627;28;20199;-77
2021/01/22 14:07:15;;;;;;;26.38;24.55;;;;;;;;;;5037772;28;20202;-78
2021/01/22 14:09:42;;;;;;;28.70;26.65;;;;;;;;;;5055401;28;20648;-79
2021/01/22 14:12:09;;;;;;;29.23;27.13;;;;;;;;;;5055334;28;20219;-77
2021/01/22 14:14:36;;;;;;;29.27;27.08;;;;;;;;;;5054803;28;20193;-77
2021/01/22 14:17:03;;;;;;;28.95;26.95;;;;;;;;;;5055079;28;20226;-76
2021/01/22 14:19:31;;;;;;;29.80;27.40;;;;;;;;;;5055188;28;20260;-77